sensor_id;sensor_type;location;lat;lon;timestamp;pressure;altitude;pressure_sealevel;temperature;humidity
20616;BME280;10467;42.338;23.552;2023-06-10T00:01:58;90590.19;;;14.86;100.00
20616;BME280;10467;42.338;23.552;2023-06-10T00:04:25;90593.00;;;14.77;100.00
20616;BME280;10467;42.338;23.552;2023-06-10T00:06:51;90593.78;;;14.78;100.00
20616;BME280;10467;42.338;23.552;2023-06-10T00:09:16;90595.13;;;14.84;100.00
20616;BME280;10467;42.338;23.552;2023-06-10T00:11:43;90583.28;;;14.85;100.00
20616;BME280;10467;42.338;23.552;2023-06-10T00:14:09;90587.09;;;14.84;100.00
20616;BME280;10467;42.338;23.552;2023-06-10T00:16:35;90582.41;;;14.81;100.00
20616;BME280;10467;42.338;23.552;2023-06-10T00:19:01;90585.84;;;14.81;100.00
20616;BME280;10467;42.338;23.552;2023-06-10T00:21:28;90578.41;;;14.75;100.00
20616;BME280;10467;42.338;23.552;2023-06-10T00:23:54;90584.63;;;14.79;100.00
20616;BME280;10467;42.338;23.552;2023-06-10T00:26:21;90580.41;;;14.78;100.00
20616;BME280;10467;42.338;23.552;2023-06-10T00:28:47;90577.03;;;14.81;100.00
20616;BME280;10467;42.338;23.552;2023-06-10T00:31:12;90576.91;;;14.89;100.00
20616;BME280;10467;42.338;23.552;2023-06-10T00:33:37;90578.09;;;14.92;100.00
20616;BME280;10467;42.338;23.552;2023-06-10T00:36:03;90575.84;;;14.94;100.00
20616;BME280;10467;42.338;23.552;2023-06-10T00:38:28;90575.63;;;14.99;100.00
20616;BME280;10467;42.338;23.552;2023-06-10T00:40:54;90572.69;;;15.04;100.00
20616;BME280;10467;42.338;23.552;2023-06-10T00:43:19;90566.78;;;14.98;100.00
20616;BME280;10467;42.338;23.552;2023-06-10T00:45:45;90571.53;;;14.89;100.00
20616;BME280;10467;42.338;23.552;2023-06-10T00:48:10;90573.69;;;14.84;100.00
20616;BME280;10467;42.338;23.552;2023-06-10T00:50:36;90570.81;;;14.77;100.00
20616;BME280;10467;42.338;23.552;2023-06-10T00:53:04;90579.09;;;14.72;100.00
20616;BME280;10467;42.338;23.552;2023-06-10T00:55:32;90573.75;;;14.72;100.00
20616;BME280;10467;42.338;23.552;2023-06-10T00:57:58;90578.75;;;14.73;100.00
20616;BME280;10467;42.338;23.552;2023-06-10T01:00:23;90581.88;;;14.75;100.00
20616;BME280;10467;42.338;23.552;2023-06-10T01:02:49;90580.16;;;14.83;100.00
20616;BME280;10467;42.338;23.552;2023-06-10T01:05:17;90583.56;;;14.95;100.00
20616;BME280;10467;42.338;23.552;2023-06-10T01:07:52;90590.56;;;15.00;100.00
20616;BME280;10467;42.338;23.552;2023-06-10T01:10:31;90592.22;;;15.05;100.00
20616;BME280;10467;42.338;23.552;2023-06-10T01:13:02;90593.41;;;14.91;100.00
20616;BME280;10467;42.338;23.552;2023-06-10T01:15:31;90587.94;;;14.88;100.00
20616;BME280;10467;42.338;23.552;2023-06-10T01:18:01;90597.97;;;14.91;100.00
20616;BME280;10467;42.338;23.552;2023-06-10T01:20:29;90594.09;;;14.88;100.00
20616;BME280;10467;42.338;23.552;2023-06-10T01:22:55;90592.53;;;14.87;100.00
20616;BME280;10467;42.338;23.552;2023-06-10T01:25:22;90592.97;;;14.89;100.00
20616;BME280;10467;42.338;23.552;2023-06-10T01:28:19;90597.53;;;14.89;100.00
20616;BME280;10467;42.338;23.552;2023-06-10T01:33:47;90600.91;;;14.86;100.00
20616;BME280;10467;42.338;23.552;2023-06-10T01:36:16;90601.38;;;14.76;100.00
20616;BME280;10467;42.338;23.552;2023-06-10T01:38:44;90600.53;;;14.72;100.00
20616;BME280;10467;42.338;23.552;2023-06-10T01:41:12;90601.09;;;14.65;100.00
20616;BME280;10467;42.338;23.552;2023-06-10T01:43:38;90597.50;;;14.73;100.00
20616;BME280;10467;42.338;23.552;2023-06-10T01:46:04;90600.72;;;14.79;100.00
20616;BME280;10467;42.338;23.552;2023-06-10T01:48:30;90596.22;;;14.83;100.00
20616;BME280;10467;42.338;23.552;2023-06-10T01:50:55;90597.47;;;14.85;100.00
20616;BME280;10467;42.338;23.552;2023-06-10T01:53:23;90596.13;;;14.79;100.00
20616;BME280;10467;42.338;23.552;2023-06-10T01:55:49;90590.44;;;14.81;100.00
20616;BME280;10467;42.338;23.552;2023-06-10T01:58:14;90602.16;;;14.76;100.00
20616;BME280;10467;42.338;23.552;2023-06-10T02:00:40;90594.56;;;14.78;100.00
20616;BME280;10467;42.338;23.552;2023-06-10T02:03:05;90590.84;;;14.83;100.00
20616;BME280;10467;42.338;23.552;2023-06-10T02:05:31;90595.13;;;14.84;100.00
20616;BME280;10467;42.338;23.552;2023-06-10T02:07:57;90600.34;;;14.80;100.00
20616;BME280;10467;42.338;23.552;2023-06-10T02:10:22;90601.78;;;14.90;100.00
20616;BME280;10467;42.338;23.552;2023-06-10T02:12:48;90610.44;;;14.99;100.00
20616;BME280;10467;42.338;23.552;2023-06-10T02:15:13;90618.31;;;15.08;100.00
20616;BME280;10467;42.338;23.552;2023-06-10T02:17:38;90600.78;;;15.10;100.00
20616;BME280;10467;42.338;23.552;2023-06-10T02:20:05;90599.66;;;15.11;100.00
20616;BME280;10467;42.338;23.552;2023-06-10T02:22:32;90596.72;;;15.01;100.00
20616;BME280;10467;42.338;23.552;2023-06-10T02:24:58;90599.22;;;15.09;100.00
20616;BME280;10467;42.338;23.552;2023-06-10T02:27:24;90591.97;;;15.10;100.00
20616;BME280;10467;42.338;23.552;2023-06-10T02:29:50;90593.84;;;15.09;100.00
20616;BME280;10467;42.338;23.552;2023-06-10T02:32:15;90591.59;;;15.11;100.00
20616;BME280;10467;42.338;23.552;2023-06-10T02:34:40;90588.94;;;15.11;100.00
20616;BME280;10467;42.338;23.552;2023-06-10T02:37:08;90597.97;;;14.91;100.00
20616;BME280;10467;42.338;23.552;2023-06-10T02:39:33;90587.31;;;14.79;100.00
20616;BME280;10467;42.338;23.552;2023-06-10T02:41:59;90598.88;;;14.83;100.00
20616;BME280;10467;42.338;23.552;2023-06-10T02:44:25;90596.75;;;14.88;100.00
20616;BME280;10467;42.338;23.552;2023-06-10T02:46:50;90588.38;;;14.90;100.00
20616;BME280;10467;42.338;23.552;2023-06-10T02:49:15;90599.09;;;14.90;100.00
20616;BME280;10467;42.338;23.552;2023-06-10T02:51:41;90601.78;;;14.90;100.00
20616;BME280;10467;42.338;23.552;2023-06-10T02:54:06;90587.88;;;14.84;100.00
20616;BME280;10467;42.338;23.552;2023-06-10T02:56:32;90593.31;;;14.88;100.00
20616;BME280;10467;42.338;23.552;2023-06-10T02:58:58;90587.94;;;14.88;100.00
20616;BME280;10467;42.338;23.552;2023-06-10T03:01:24;90592.97;;;14.89;100.00
20616;BME280;10467;42.338;23.552;2023-06-10T03:03:49;90597.28;;;14.94;100.00
20616;BME280;10467;42.338;23.552;2023-06-10T03:06:16;90596.97;;;15.11;100.00
20616;BME280;10467;42.338;23.552;2023-06-10T03:08:42;90598.53;;;15.12;100.00
20616;BME280;10467;42.338;23.552;2023-06-10T03:11:08;90600.09;;;15.13;100.00
20616;BME280;10467;42.338;23.552;2023-06-10T03:13:33;90596.13;;;15.23;100.00
20616;BME280;10467;42.338;23.552;2023-06-10T03:15:58;90597.69;;;15.40;100.00
20616;BME280;10467;42.338;23.552;2023-06-10T03:18:26;90598.03;;;15.54;100.00
20616;BME280;10467;42.338;23.552;2023-06-10T03:20:52;90596.22;;;15.58;100.00
20616;BME280;10467;42.338;23.552;2023-06-10T03:23:17;90597.13;;;15.62;100.00
20616;BME280;10467;42.338;23.552;2023-06-10T03:25:44;90596.00;;;15.63;100.00
20616;BME280;10467;42.338;23.552;2023-06-10T03:28:09;90593.06;;;15.68;100.00
20616;BME280;10467;42.338;23.552;2023-06-10T03:30:35;90602.31;;;15.71;100.00
20616;BME280;10467;42.338;23.552;2023-06-10T03:33:01;90598.94;;;15.74;100.00
20616;BME280;10467;42.338;23.552;2023-06-10T03:35:26;90589.25;;;15.69;100.00
20616;BME280;10467;42.338;23.552;2023-06-10T03:37:52;90590.88;;;15.74;100.00
20616;BME280;10467;42.338;23.552;2023-06-10T03:40:17;90592.34;;;15.71;100.00
20616;BME280;10467;42.338;23.552;2023-06-10T03:42:43;90591.75;;;15.46;100.00
20616;BME280;10467;42.338;23.552;2023-06-10T03:45:09;90587.59;;;15.49;100.00
20616;BME280;10467;42.338;23.552;2023-06-10T03:47:35;90591.56;;;15.55;100.00
20616;BME280;10467;42.338;23.552;2023-06-10T03:50:05;90582.66;;;15.51;100.00
20616;BME280;10467;42.338;23.552;2023-06-10T03:52:30;90586.91;;;15.52;100.00
20616;BME280;10467;42.338;23.552;2023-06-10T03:54:56;90585.38;;;15.67;100.00
20616;BME280;10467;42.338;23.552;2023-06-10T03:57:21;90596.16;;;15.70;100.00
20616;BME280;10467;42.338;23.552;2023-06-10T03:59:47;90585.38;;;15.67;100.00
20616;BME280;10467;42.338;23.552;2023-06-10T04:02:12;90579.38;;;15.73;100.00
20616;BME280;10467;42.338;23.552;2023-06-10T04:04:38;90580.69;;;15.79;100.00
20616;BME280;10467;42.338;23.552;2023-06-10T04:07:04;90583.09;;;15.84;100.00
20616;BME280;10467;42.338;23.552;2023-06-10T04:09:31;90573.09;;;16.01;100.00
20616;BME280;10467;42.338;23.552;2023-06-10T04:11:57;90572.22;;;16.12;100.00
20616;BME280;10467;42.338;23.552;2023-06-10T04:14:22;90574.69;;;16.21;100.00
20616;BME280;10467;42.338;23.552;2023-06-10T04:16:47;90579.41;;;16.43;100.00
20616;BME280;10467;42.338;23.552;2023-06-10T04:19:13;90570.13;;;16.41;100.00
20616;BME280;10467;42.338;23.552;2023-06-10T04:21:38;90576.78;;;16.66;100.00
20616;BME280;10467;42.338;23.552;2023-06-10T04:24:04;90583.28;;;16.65;100.00
20616;BME280;10467;42.338;23.552;2023-06-10T04:26:29;90579.72;;;16.77;100.00
20616;BME280;10467;42.338;23.552;2023-06-10T04:28:55;90578.22;;;16.80;100.00
20616;BME280;10467;42.338;23.552;2023-06-10T04:31:20;90582.50;;;16.65;100.00
20616;BME280;10467;42.338;23.552;2023-06-10T04:33:46;90585.44;;;16.95;100.00
20616;BME280;10467;42.338;23.552;2023-06-10T04:36:11;90584.56;;;17.10;100.00
20616;BME280;10467;42.338;23.552;2023-06-10T04:38:37;90582.78;;;17.18;100.00
20616;BME280;10467;42.338;23.552;2023-06-10T04:41:02;90583.59;;;17.41;100.00
20616;BME280;10467;42.338;23.552;2023-06-10T04:43:27;90579.09;;;17.49;100.00
20616;BME280;10467;42.338;23.552;2023-06-10T04:45:56;90586.22;;;17.60;100.00
20616;BME280;10467;42.338;23.552;2023-06-10T04:48:21;90584.31;;;17.84;100.00
20616;BME280;10467;42.338;23.552;2023-06-10T04:50:49;90583.06;;;17.78;100.00
20616;BME280;10467;42.338;23.552;2023-06-10T04:53:15;90585.19;;;17.91;100.00
20616;BME280;10467;42.338;23.552;2023-06-10T04:55:40;90581.00;;;18.47;100.00
20616;BME280;10467;42.338;23.552;2023-06-10T04:58:06;90582.38;;;18.94;100.00
20616;BME280;10467;42.338;23.552;2023-06-10T05:00:32;90577.03;;;19.34;100.00
20616;BME280;10467;42.338;23.552;2023-06-10T05:02:57;90573.50;;;19.64;100.00
20616;BME280;10467;42.338;23.552;2023-06-10T05:05:22;90577.19;;;19.89;100.00
20616;BME280;10467;42.338;23.552;2023-06-10T05:07:48;90570.31;;;19.99;100.00
20616;BME280;10467;42.338;23.552;2023-06-10T05:10:13;90575.94;;;20.31;100.00
20616;BME280;10467;42.338;23.552;2023-06-10T05:12:39;90583.00;;;20.43;100.00
20616;BME280;10467;42.338;23.552;2023-06-10T05:15:06;90578.09;;;20.66;100.00
20616;BME280;10467;42.338;23.552;2023-06-10T05:17:32;90574.34;;;20.85;100.00
20616;BME280;10467;42.338;23.552;2023-06-10T05:19:58;90575.84;;;20.79;100.00
20616;BME280;10467;42.338;23.552;2023-06-10T05:22:24;90579.69;;;20.78;100.00
20616;BME280;10467;42.338;23.552;2023-06-10T05:24:50;90568.72;;;20.46;100.00
20616;BME280;10467;42.338;23.552;2023-06-10T05:27:16;90573.81;;;20.54;100.00
20616;BME280;10467;42.338;23.552;2023-06-10T05:29:42;90572.34;;;20.71;100.00
20616;BME280;10467;42.338;23.552;2023-06-10T05:32:08;90574.28;;;20.78;100.00
20616;BME280;10467;42.338;23.552;2023-06-10T05:34:33;90580.00;;;20.58;100.00
20616;BME280;10467;42.338;23.552;2023-06-10T05:36:59;90575.25;;;20.41;100.00
20616;BME280;10467;42.338;23.552;2023-06-10T05:39:24;90577.28;;;20.58;100.00
20616;BME280;10467;42.338;23.552;2023-06-10T05:41:50;90579.75;;;20.88;100.00
20616;BME280;10467;42.338;23.552;2023-06-10T05:44:16;90578.34;;;21.19;100.00
20616;BME280;10467;42.338;23.552;2023-06-10T05:46:41;90574.47;;;21.20;100.00
20616;BME280;10467;42.338;23.552;2023-06-10T05:49:07;90574.41;;;20.99;100.00
20616;BME280;10467;42.338;23.552;2023-06-10T05:51:32;90577.59;;;21.30;100.00
20616;BME280;10467;42.338;23.552;2023-06-10T05:53:57;90570.69;;;21.32;100.00
20616;BME280;10467;42.338;23.552;2023-06-10T05:56:23;90581.38;;;21.11;100.00
20616;BME280;10467;42.338;23.552;2023-06-10T05:58:49;90579.19;;;21.45;100.00
20616;BME280;10467;42.338;23.552;2023-06-10T06:01:14;90585.63;;;21.08;100.00
20616;BME280;10467;42.338;23.552;2023-06-10T06:03:40;90579.41;;;20.97;100.00
20616;BME280;10467;42.338;23.552;2023-06-10T06:06:06;90581.22;;;20.72;100.00
20616;BME280;10467;42.338;23.552;2023-06-10T06:08:31;90591.91;;;20.50;100.00
20616;BME280;10467;42.338;23.552;2023-06-10T06:10:57;90587.91;;;20.30;100.00
20616;BME280;10467;42.338;23.552;2023-06-10T06:13:23;90581.72;;;20.33;100.00
20616;BME280;10467;42.338;23.552;2023-06-10T06:15:48;90589.84;;;20.33;100.00
20616;BME280;10467;42.338;23.552;2023-06-10T06:18:14;90582.50;;;19.79;100.00
20616;BME280;10467;42.338;23.552;2023-06-10T06:20:39;90589.72;;;19.67;100.00
20616;BME280;10467;42.338;23.552;2023-06-10T06:23:05;90588.00;;;19.52;100.00
20616;BME280;10467;42.338;23.552;2023-06-10T06:25:30;90592.56;;;19.44;100.00
20616;BME280;10467;42.338;23.552;2023-06-10T06:27:56;90595.47;;;19.29;100.00
20616;BME280;10467;42.338;23.552;2023-06-10T06:30:21;90588.31;;;19.43;100.00
20616;BME280;10467;42.338;23.552;2023-06-10T06:32:47;90593.97;;;18.98;100.00
20616;BME280;10467;42.338;23.552;2023-06-10T06:35:12;90594.06;;;19.05;100.00
20616;BME280;10467;42.338;23.552;2023-06-10T06:37:37;90593.84;;;19.21;100.00
20616;BME280;10467;42.338;23.552;2023-06-10T06:40:03;90591.06;;;19.10;100.00
20616;BME280;10467;42.338;23.552;2023-06-10T06:42:29;90590.47;;;18.94;100.00
20616;BME280;10467;42.338;23.552;2023-06-10T06:44:54;90584.06;;;18.75;100.00
20616;BME280;10467;42.338;23.552;2023-06-10T06:47:20;90595.78;;;18.60;100.00
20616;BME280;10467;42.338;23.552;2023-06-10T06:49:48;90596.50;;;18.57;100.00
20616;BME280;10467;42.338;23.552;2023-06-10T06:52:14;90593.00;;;18.53;100.00
20616;BME280;10467;42.338;23.552;2023-06-10T06:54:40;90597.78;;;18.63;100.00
20616;BME280;10467;42.338;23.552;2023-06-10T06:57:06;90590.28;;;18.49;100.00
20616;BME280;10467;42.338;23.552;2023-06-10T06:59:32;90587.34;;;18.32;100.00
20616;BME280;10467;42.338;23.552;2023-06-10T07:01:58;90596.03;;;18.21;100.00
20616;BME280;10467;42.338;23.552;2023-06-10T07:04:23;90595.44;;;18.09;100.00
20616;BME280;10467;42.338;23.552;2023-06-10T07:06:49;90598.16;;;17.63;100.00
20616;BME280;10467;42.338;23.552;2023-06-10T07:09:14;90597.38;;;17.40;100.00
20616;BME280;10467;42.338;23.552;2023-06-10T07:11:40;90595.56;;;17.24;100.00
20616;BME280;10467;42.338;23.552;2023-06-10T07:14:06;90598.53;;;17.19;100.00
20616;BME280;10467;42.338;23.552;2023-06-10T07:16:32;90604.16;;;17.11;100.00
20616;BME280;10467;42.338;23.552;2023-06-10T07:18:57;90604.16;;;17.11;100.00
20616;BME280;10467;42.338;23.552;2023-06-10T07:21:23;90607.28;;;16.93;100.00
20616;BME280;10467;42.338;23.552;2023-06-10T07:23:48;90598.88;;;16.95;100.00
20616;BME280;10467;42.338;23.552;2023-06-10T07:26:14;90611.16;;;16.96;100.00
20616;BME280;10467;42.338;23.552;2023-06-10T07:28:40;90606.06;;;17.10;100.00
20616;BME280;10467;42.338;23.552;2023-06-10T07:31:07;90607.13;;;17.05;100.00
20616;BME280;10467;42.338;23.552;2023-06-10T07:33:32;90599.00;;;16.83;100.00
20616;BME280;10467;42.338;23.552;2023-06-10T07:35:58;90599.38;;;16.81;100.00
20616;BME280;10467;42.338;23.552;2023-06-10T07:38:24;90601.00;;;16.51;100.00
20616;BME280;10467;42.338;23.552;2023-06-10T07:40:50;90603.56;;;16.63;100.00
20616;BME280;10467;42.338;23.552;2023-06-10T07:43:16;90602.91;;;16.50;100.00
20616;BME280;10467;42.338;23.552;2023-06-10T07:45:42;90604.44;;;16.67;100.00
20616;BME280;10467;42.338;23.552;2023-06-10T07:48:08;90597.50;;;16.46;100.00
20616;BME280;10467;42.338;23.552;2023-06-10T07:50:33;90601.66;;;16.44;100.00
20616;BME280;10467;42.338;23.552;2023-06-10T07:52:59;90602.19;;;16.69;100.00
20616;BME280;10467;42.338;23.552;2023-06-10T07:55:24;90606.28;;;17.01;100.00
20616;BME280;10467;42.338;23.552;2023-06-10T07:57:52;90603.47;;;17.36;100.00
20616;BME280;10467;42.338;23.552;2023-06-10T08:00:17;90599.50;;;17.08;100.00
20616;BME280;10467;42.338;23.552;2023-06-10T08:02:43;90596.34;;;17.25;100.00
20616;BME280;10467;42.338;23.552;2023-06-10T08:05:08;90605.16;;;17.45;100.00
20616;BME280;10467;42.338;23.552;2023-06-10T08:07:34;90598.41;;;17.77;100.00
20616;BME280;10467;42.338;23.552;2023-06-10T08:10:00;90601.81;;;18.23;100.00
20616;BME280;10467;42.338;23.552;2023-06-10T08:12:25;90594.78;;;18.68;100.00
20616;BME280;10467;42.338;23.552;2023-06-10T08:14:51;90599.69;;;20.62;100.00
20616;BME280;10467;42.338;23.552;2023-06-10T08:17:16;90601.69;;;21.70;100.00
20616;BME280;10467;42.338;23.552;2023-06-10T08:19:41;90600.88;;;21.52;100.00
20616;BME280;10467;42.338;23.552;2023-06-10T08:22:07;90602.88;;;21.87;100.00
20616;BME280;10467;42.338;23.552;2023-06-10T08:24:32;90592.41;;;22.85;100.00
20616;BME280;10467;42.338;23.552;2023-06-10T08:26:58;90595.47;;;23.89;100.00
20616;BME280;10467;42.338;23.552;2023-06-10T08:29:23;90594.91;;;24.64;100.00
20616;BME280;10467;42.338;23.552;2023-06-10T08:31:49;90595.13;;;23.80;100.00
20616;BME280;10467;42.338;23.552;2023-06-10T08:34:14;90598.44;;;23.32;100.00
20616;BME280;10467;42.338;23.552;2023-06-10T08:36:40;90591.97;;;22.97;100.00
20616;BME280;10467;42.338;23.552;2023-06-10T08:39:05;90595.78;;;23.25;100.00
20616;BME280;10467;42.338;23.552;2023-06-10T08:41:43;90586.22;;;24.35;100.00
20616;BME280;10467;42.338;23.552;2023-06-10T08:44:17;90590.00;;;24.44;100.00
20616;BME280;10467;42.338;23.552;2023-06-10T08:46:47;90591.91;;;26.18;100.00
20616;BME280;10467;42.338;23.552;2023-06-10T08:49:18;90587.31;;;27.52;99.68
20616;BME280;10467;42.338;23.552;2023-06-10T08:51:43;90585.16;;;27.99;89.81
20616;BME280;10467;42.338;23.552;2023-06-10T08:54:17;90584.03;;;30.64;60.19
20616;BME280;10467;42.338;23.552;2023-06-10T08:56:48;90588.22;;;33.46;53.92
20616;BME280;10467;42.338;23.552;2023-06-10T08:59:15;90585.78;;;32.50;50.01
20616;BME280;10467;42.338;23.552;2023-06-10T09:01:42;90576.09;;;32.76;49.64
20616;BME280;10467;42.338;23.552;2023-06-10T09:04:08;90584.44;;;32.54;47.95
20616;BME280;10467;42.338;23.552;2023-06-10T09:06:34;90582.00;;;32.65;46.79
20616;BME280;10467;42.338;23.552;2023-06-10T09:09:01;90579.00;;;34.04;46.90
20616;BME280;10467;42.338;23.552;2023-06-10T09:11:27;90568.47;;;34.45;46.87
20616;BME280;10467;42.338;23.552;2023-06-10T09:13:52;90571.75;;;34.25;40.61
20616;BME280;10467;42.338;23.552;2023-06-10T09:16:18;90573.53;;;31.88;43.16
20616;BME280;10467;42.338;23.552;2023-06-10T09:18:43;90563.69;;;32.31;47.33
20616;BME280;10467;42.338;23.552;2023-06-10T09:21:09;90572.22;;;34.05;43.40
20616;BME280;10467;42.338;23.552;2023-06-10T09:23:35;90569.28;;;35.98;42.17
20616;BME280;10467;42.338;23.552;2023-06-10T09:26:02;90555.59;;;34.33;40.10
20616;BME280;10467;42.338;23.552;2023-06-10T09:28:30;90567.44;;;34.75;40.09
20616;BME280;10467;42.338;23.552;2023-06-10T09:31:05;90559.72;;;34.79;39.78
20616;BME280;10467;42.338;23.552;2023-06-10T09:33:32;90566.59;;;34.51;41.10
20616;BME280;10467;42.338;23.552;2023-06-10T09:36:01;90555.22;;;33.06;42.95
20616;BME280;10467;42.338;23.552;2023-06-10T09:38:31;90557.53;;;33.81;42.88
20616;BME280;10467;42.338;23.552;2023-06-10T09:40:57;90552.78;;;35.17;38.38
20616;BME280;10467;42.338;23.552;2023-06-10T09:43:41;90547.13;;;33.57;38.21
20616;BME280;10467;42.338;23.552;2023-06-10T09:46:14;90554.16;;;33.31;42.34
20616;BME280;10467;42.338;23.552;2023-06-10T09:48:44;90546.38;;;33.57;41.65
20616;BME280;10467;42.338;23.552;2023-06-10T09:51:10;90542.03;;;34.02;41.25
20616;BME280;10467;42.338;23.552;2023-06-10T09:53:36;90550.16;;;31.49;44.05
20616;BME280;10467;42.338;23.552;2023-06-10T09:56:02;90544.81;;;30.26;48.05
20616;BME280;10467;42.338;23.552;2023-06-10T09:58:39;90533.63;;;33.78;43.01
20616;BME280;10467;42.338;23.552;2023-06-10T10:01:09;90547.97;;;35.51;38.82
20616;BME280;10467;42.338;23.552;2023-06-10T10:03:49;90534.00;;;36.57;39.48
20616;BME280;10467;42.338;23.552;2023-06-10T10:06:17;90540.94;;;35.17;39.19
20616;BME280;10467;42.338;23.552;2023-06-10T10:08:43;90539.88;;;32.46;42.10
20616;BME280;10467;42.338;23.552;2023-06-10T10:11:10;90532.06;;;30.70;45.81
20616;BME280;10467;42.338;23.552;2023-06-10T10:13:35;90529.66;;;29.41;47.19
20616;BME280;10467;42.338;23.552;2023-06-10T10:16:17;90528.25;;;28.91;46.24
20616;BME280;10467;42.338;23.552;2023-06-10T10:18:52;90527.59;;;30.98;43.49
20616;BME280;10467;42.338;23.552;2023-06-10T10:21:22;90531.47;;;30.88;41.59
20616;BME280;10467;42.338;23.552;2023-06-10T10:23:53;90529.59;;;31.76;42.66
20616;BME280;10467;42.338;23.552;2023-06-10T10:26:25;90523.13;;;31.26;44.17
20616;BME280;10467;42.338;23.552;2023-06-10T10:31:27;90516.63;;;28.71;48.02
20616;BME280;10467;42.338;23.552;2023-06-10T10:33:58;90520.28;;;29.26;46.91
20616;BME280;10467;42.338;23.552;2023-06-10T10:36:25;90514.91;;;27.60;49.55
20616;BME280;10467;42.338;23.552;2023-06-10T10:38:51;90511.84;;;28.91;51.17
20616;BME280;10467;42.338;23.552;2023-06-10T10:41:18;90514.69;;;30.60;48.85
20616;BME280;10467;42.338;23.552;2023-06-10T10:43:45;90517.81;;;30.62;48.31
20616;BME280;10467;42.338;23.552;2023-06-10T10:46:13;90505.69;;;30.73;48.96
20616;BME280;10467;42.338;23.552;2023-06-10T10:48:40;90508.13;;;29.94;53.07
20616;BME280;10467;42.338;23.552;2023-06-10T10:51:09;90506.81;;;29.32;51.89
20616;BME280;10467;42.338;23.552;2023-06-10T10:53:37;90500.09;;;29.62;51.43
20616;BME280;10467;42.338;23.552;2023-06-10T10:56:13;90493.22;;;29.28;51.97
20616;BME280;10467;42.338;23.552;2023-06-10T10:58:39;90495.16;;;29.15;53.76
20616;BME280;10467;42.338;23.552;2023-06-10T11:01:14;90493.31;;;28.01;55.14
20616;BME280;10467;42.338;23.552;2023-06-10T11:03:46;90509.75;;;26.86;56.60
20616;BME280;10467;42.338;23.552;2023-06-10T11:06:16;90503.78;;;26.24;58.57
20616;BME280;10467;42.338;23.552;2023-06-10T11:11:26;90497.78;;;25.56;63.51
20616;BME280;10467;42.338;23.552;2023-06-10T11:14:06;90495.66;;;24.79;65.92
20616;BME280;10467;42.338;23.552;2023-06-10T11:16:42;90487.16;;;26.42;70.51
20616;BME280;10467;42.338;23.552;2023-06-10T11:19:08;90479.31;;;28.93;57.87
20616;BME280;10467;42.338;23.552;2023-06-10T11:21:58;90495.13;;;31.06;50.17
20616;BME280;10467;42.338;23.552;2023-06-10T11:24:25;90490.75;;;33.03;45.05
20616;BME280;10467;42.338;23.552;2023-06-10T11:26:51;90492.16;;;32.40;45.12
20616;BME280;10467;42.338;23.552;2023-06-10T11:29:16;90485.78;;;32.80;43.40
20616;BME280;10467;42.338;23.552;2023-06-10T11:31:49;90488.09;;;30.10;47.18
20616;BME280;10467;42.338;23.552;2023-06-10T11:34:15;90479.94;;;27.71;52.05
20616;BME280;10467;42.338;23.552;2023-06-10T11:36:45;90475.44;;;28.13;54.13
20616;BME280;10467;42.338;23.552;2023-06-10T11:39:12;90476.31;;;29.17;51.02
20616;BME280;10467;42.338;23.552;2023-06-10T11:41:38;90470.84;;;27.22;55.95
20616;BME280;10467;42.338;23.552;2023-06-10T11:46:33;90474.38;;;26.12;62.77
20616;BME280;10467;42.338;23.552;2023-06-10T11:48:59;90472.72;;;26.18;59.29
20616;BME280;10467;42.338;23.552;2023-06-10T11:51:27;90466.81;;;25.46;62.02
20616;BME280;10467;42.338;23.552;2023-06-10T11:53:53;90474.72;;;24.72;70.23
20616;BME280;10467;42.338;23.552;2023-06-10T11:56:20;90468.56;;;24.68;74.19
20616;BME280;10467;42.338;23.552;2023-06-10T11:58:52;90465.59;;;26.48;68.56
20616;BME280;10467;42.338;23.552;2023-06-10T12:01:23;90462.44;;;26.06;64.19
20616;BME280;10467;42.338;23.552;2023-06-10T12:04:05;90466.63;;;25.60;66.22
20616;BME280;10467;42.338;23.552;2023-06-10T12:06:57;90460.47;;;26.07;62.43
20616;BME280;10467;42.338;23.552;2023-06-10T12:09:27;90461.28;;;26.50;61.35
20616;BME280;10467;42.338;23.552;2023-06-10T12:12:01;90456.66;;;26.24;65.92
20616;BME280;10467;42.338;23.552;2023-06-10T12:14:52;90448.44;;;26.71;60.14
20616;BME280;10467;42.338;23.552;2023-06-10T12:17:23;90453.72;;;27.01;59.90
20616;BME280;10467;42.338;23.552;2023-06-10T12:19:50;90462.34;;;26.56;62.40
20616;BME280;10467;42.338;23.552;2023-06-10T12:22:16;90463.22;;;25.53;61.95
20616;BME280;10467;42.338;23.552;2023-06-10T12:24:45;90460.97;;;24.87;65.06
20616;BME280;10467;42.338;23.552;2023-06-10T12:27:12;90453.38;;;24.37;67.75
20616;BME280;10467;42.338;23.552;2023-06-10T12:29:37;90467.16;;;24.15;74.84
20616;BME280;10467;42.338;23.552;2023-06-10T12:32:03;90460.59;;;24.09;73.56
20616;BME280;10467;42.338;23.552;2023-06-10T12:36:57;90459.47;;;24.48;80.91
20616;BME280;10467;42.338;23.552;2023-06-10T12:39:23;90454.72;;;24.56;79.55
20616;BME280;10467;42.338;23.552;2023-06-10T12:41:49;90453.28;;;24.44;76.67
20616;BME280;10467;42.338;23.552;2023-06-10T12:44:15;90462.53;;;24.09;79.92
20616;BME280;10467;42.338;23.552;2023-06-10T12:46:40;90460.06;;;23.84;78.43
20616;BME280;10467;42.338;23.552;2023-06-10T12:49:06;90456.91;;;23.37;83.46
20616;BME280;10467;42.338;23.552;2023-06-10T12:51:31;90453.28;;;23.51;83.08
20616;BME280;10467;42.338;23.552;2023-06-10T12:53:56;90459.50;;;23.51;79.05
20616;BME280;10467;42.338;23.552;2023-06-10T12:56:22;90448.78;;;23.30;86.25